Time;durP1;ratioP1;P1;durP2;ratioP2;P2;SDS_P1;SDS_P2;PMS_P1;PMS_P2;Temp;Humidity;BMP_temperature;BMP_pressure;BME280_temperature;BME280_humidity;BME280_pressure;Samples;Min_cycle;Max_cycle;Signal;HPM_P1;HPM_P2
2022/12/10 00:01:17;;;;;;;26.35;11.38;;;;;;;4.50;100.00;98956.13;5016283;28;20022;-81
2022/12/10 00:03:44;;;;;;;20.50;10.68;;;;;;;4.39;100.00;98935.31;5017132;28;20085;-80
2022/12/10 00:06:15;;;;;;;26.35;12.55;;;;;;;4.53;100.00;98964.78;5034984;28;20018;-81
2022/12/10 00:08:41;;;;;;;20.25;11.38;;;;;;;4.52;100.00;98970.09;5034346;28;20026;-80
2022/12/10 00:11:09;;;;;;;25.52;12.13;;;;;;;4.51;100.00;98976.28;5018373;28;20038;-81
2022/12/10 00:13:35;;;;;;;27.25;12.73;;;;;;;4.23;100.00;98933.97;5035678;28;20034;-79
2022/12/10 00:16:05;;;;;;;24.90;11.15;;;;;;;4.34;100.00;98941.59;5018530;28;20018;-79
2022/12/10 00:18:32;;;;;;;25.63;12.50;;;;;;;4.54;100.00;98976.19;5018763;28;20025;-79
2022/12/10 00:20:57;;;;;;;43.88;17.55;;;;;;;4.42;100.00;98956.31;5014635;28;20038;-78
2022/12/10 00:23:23;;;;;;;23.25;11.20;;;;;;;4.39;100.00;98948.47;5015396;28;20019;-81
2022/12/10 00:25:48;;;;;;;25.38;12.85;;;;;;;4.41;100.00;98959.84;5021299;28;20034;-80
2022/12/10 00:28:14;;;;;;;33.58;13.77;;;;;;;4.36;100.00;98956.47;5018178;28;20070;-80
2022/12/10 00:30:39;;;;;;;20.67;10.88;;;;;;;4.42;100.00;98969.47;5032044;28;20034;-79
2022/12/10 00:33:05;;;;;;;24.60;12.40;;;;;;;4.33;100.00;98946.03;5029960;28;20050;-79
2022/12/10 00:35:30;;;;;;;24.27;11.68;;;;;;;4.25;100.00;98936.56;5032262;28;20022;-80
2022/12/10 00:37:56;;;;;;;20.23;10.38;;;;;;;4.30;100.00;98951.31;5016286;28;20031;-81
2022/12/10 00:40:22;;;;;;;25.58;10.32;;;;;;;4.42;100.00;98969.47;5016466;28;20023;-79
2022/12/10 00:42:48;;;;;;;28.38;11.77;;;;;;;4.39;100.00;98966.91;5017936;28;20017;-80
2022/12/10 00:45:13;;;;;;;24.98;11.73;;;;;;;4.42;100.00;98976.47;5016575;28;20066;-80
2022/12/10 00:47:39;;;;;;;20.83;10.68;;;;;;;4.31;100.00;98957.47;5001272;28;20066;-80
2022/12/10 00:50:04;;;;;;;21.27;10.65;;;;;;;4.48;100.00;98982.47;4997818;28;20022;-80
2022/12/10 00:52:31;;;;;;;21.85;10.52;;;;;;;4.31;100.00;98960.97;5016615;28;20034;-81
2022/12/10 00:54:56;;;;;;;20.80;12.02;;;;;;;4.41;100.00;98985.28;5021586;28;20066;-80
2022/12/10 00:57:22;;;;;;;23.00;10.73;;;;;;;4.40;100.00;98986.22;5018075;28;20010;-79
2022/12/10 00:59:47;;;;;;;22.98;9.90;;;;;;;4.34;100.00;98963.53;5017137;28;20038;-80
2022/12/10 01:02:12;;;;;;;24.42;11.48;;;;;;;4.39;100.00;98977.44;5021142;28;20061;-80
2022/12/10 01:04:38;;;;;;;25.45;11.75;;;;;;;4.45;100.00;98992.22;5018455;28;20030;-80
2022/12/10 01:07:03;;;;;;;22.80;10.57;;;;;;;4.31;100.00;98979.41;5018905;28;20082;-81
2022/12/10 01:09:30;;;;;;;19.92;9.13;;;;;;;4.23;100.00;98955.03;5018389;28;20045;-81
2022/12/10 01:11:57;;;;;;;19.02;9.80;;;;;;;4.46;100.00;99000.09;5025565;28;20081;-80
2022/12/10 01:14:27;;;;;;;24.13;11.00;;;;;;;4.49;100.00;98992.09;5036688;28;20037;-81
2022/12/10 01:16:55;;;;;;;19.88;10.48;;;;;;;4.41;100.00;98991.44;5037239;28;20017;-80
2022/12/10 01:19:20;;;;;;;23.48;12.27;;;;;;;4.30;100.00;98967.13;5037934;28;20033;-80
2022/12/10 01:21:51;;;;;;;24.17;11.23;;;;;;;4.29;100.00;98970.66;5035343;28;20103;-81
2022/12/10 01:24:16;;;;;;;21.95;10.52;;;;;;;4.34;100.00;98975.81;5038112;28;20018;-81
2022/12/10 01:26:42;;;;;;;22.15;11.38;;;;;;;4.42;100.00;99000.19;5026457;28;20050;-81
2022/12/10 01:29:10;;;;;;;21.50;11.40;;;;;;;4.21;100.00;98951.56;5034405;28;20078;-81
2022/12/10 01:31:37;;;;;;;21.65;11.00;;;;;;;4.16;100.00;98937.66;5018358;28;20097;-79
2022/12/10 01:34:05;;;;;;;25.40;10.27;;;;;;;4.45;100.00;98986.97;5021048;28;20018;-81
2022/12/10 01:36:51;;;;;;;23.80;10.82;;;;;;;4.31;100.00;98968.88;5015945;28;20014;-80
2022/12/10 01:39:18;;;;;;;21.58;10.50;;;;;;;4.13;100.00;98937.75;5017440;28;20036;-81
2022/12/10 01:41:56;;;;;;;21.02;10.38;;;;;;;4.24;100.00;98972.53;5020447;28;20041;-79
2022/12/10 01:44:21;;;;;;;24.63;11.05;;;;;;;4.27;100.00;98983.00;5018239;28;20018;-81
2022/12/10 01:46:49;;;;;;;21.65;10.50;;;;;;;4.21;100.00;98980.53;5017201;28;20026;-80
2022/12/10 01:49:17;;;;;;;22.77;10.50;;;;;;;4.00;100.00;98952.09;5017501;28;20027;-79
2022/12/10 01:51:45;;;;;;;23.58;10.13;;;;;;;4.15;100.00;98983.31;5020736;28;20098;-81
2022/12/10 01:54:15;;;;;;;22.65;11.15;;;;;;;4.08;100.00;98986.97;5016710;28;20101;-79
2022/12/10 01:56:49;;;;;;;24.00;11.43;;;;;;;4.12;100.00;98993.88;5019106;28;20046;-80
2022/12/10 01:59:14;;;;;;;23.63;11.13;;;;;;;4.12;100.00;98999.13;5017097;28;20014;-79
2022/12/10 02:01:50;;;;;;;25.63;10.95;;;;;;;3.81;100.00;98956.03;5018905;28;20026;-78
2022/12/10 02:04:41;;;;;;;19.13;10.23;;;;;;;4.02;100.00;98998.50;5012023;28;20034;-79
2022/12/10 02:07:46;;;;;;;21.85;9.52;;;;;;;3.86;100.00;98985.72;5015873;28;20045;-81
2022/12/10 02:10:19;;;;;;;24.83;10.77;;;;;;;3.99;100.00;99013.47;4979575;28;20453;-78
2022/12/10 02:13:04;;;;;;;24.33;11.63;;;;;;;3.82;100.00;98984.06;5012407;28;20042;-79
2022/12/10 02:15:39;;;;;;;22.33;11.15;;;;;;;3.99;100.00;99011.72;4996736;28;20027;-80
2022/12/10 02:18:08;;;;;;;19.00;11.00;;;;;;;4.02;100.00;99002.88;5011620;28;20037;-79
2022/12/10 02:20:48;;;;;;;25.52;11.35;;;;;;;3.96;100.00;98998.63;5015004;28;20034;-79
2022/12/10 02:23:21;;;;;;;26.70;12.20;;;;;;;3.85;100.00;98973.47;4996046;28;20026;-79
2022/12/10 02:26:15;;;;;;;26.95;12.45;;;;;;;3.79;100.00;98953.44;5015957;28;20118;-79
2022/12/10 02:28:59;;;;;;;;;;;;;;;4.05;100.00;98995.78;5016326;28;20584;-80
2022/12/10 02:31:29;;;;;;;;;;;;;;;4.05;100.00;98995.78;5017406;28;19909;-80
2022/12/10 02:33:59;;;;;;;;;;;;;;;4.08;100.00;98992.22;5019083;28;20435;-80
2022/12/10 02:36:26;;;;;;;;;;;;;;;4.06;100.00;98991.41;5030977;28;19917;-79
2022/12/10 02:38:53;;;;;;;;;;;;;;;4.07;100.00;98987.00;5031749;28;19956;-80
2022/12/10 02:41:25;;;;;;;;;;;;;;;4.05;100.00;98992.31;5015335;28;20488;-80
2022/12/10 02:43:52;;;;;;;;;;;;;;;4.07;100.00;98993.13;5014997;28;20361;-79
2022/12/10 02:46:17;;;;;;;;;;;;;;;4.09;100.00;98991.31;5013672;28;20399;-79
2022/12/10 02:48:45;;;;;;;;;;;;;;;4.09;100.00;98991.31;5012508;28;19922;-80
2022/12/10 02:51:10;;;;;;;;;;;;;;;4.08;100.00;98986.97;4994216;28;19952;-79
2022/12/10 02:53:41;;;;;;;;;;;;;;;4.10;100.00;98989.56;5000448;28;19918;-80
2022/12/10 02:56:09;;;;;;;;;;;;;;;4.11;100.00;98997.41;5009828;28;19898;-80
2022/12/10 02:58:47;;;;;;;;;;;;;;;4.12;100.00;99004.41;4995567;28;19914;-79
2022/12/10 03:01:22;;;;;;;;;;;;;;;4.15;100.00;99004.34;5030187;28;19910;-79
2022/12/10 03:04:05;;;;;;;;;;;;;;;4.11;100.00;99002.69;5017923;28;19909;-79
2022/12/10 03:06:36;;;;;;;;;;;;;;;4.17;100.00;99007.78;5028673;28;19918;-79
2022/12/10 03:09:10;;;;;;;;;;;;;;;4.18;100.00;99012.19;4993998;28;19918;-79
2022/12/10 03:11:37;;;;;;;;;;;;;;;4.17;100.00;99013.06;4993102;28;19914;-79
2022/12/10 03:14:07;;;;;;;;;;;;;;;4.17;100.00;99012.22;5001007;28;19913;-79
2022/12/10 03:16:38;;;;;;;;;;;;;;;4.23;100.00;99020.84;5033407;28;19913;-79
2022/12/10 03:19:05;;;;;;;;;;;;;;;4.24;100.00;99012.03;5032488;28;19981;-78
2022/12/10 03:21:32;;;;;;;;;;;;;;;4.21;100.00;99013.84;5027858;28;19932;-80
2022/12/10 03:23:58;;;;;;;;;;;;;;;4.21;100.00;99014.72;5032135;28;19940;-79
2022/12/10 03:26:24;;;;;;;;;;;;;;;4.24;100.00;99024.31;5028167;28;19913;-79
2022/12/10 03:28:52;;;;;;;;;;;;;;;4.25;100.00;99026.91;5031377;28;19913;-80
2022/12/10 03:31:18;;;;;;;;;;;;;;;4.25;100.00;99029.53;5030921;28;19920;-79
2022/12/10 03:33:44;;;;;;;;;;;;;;;4.25;100.00;99028.69;5030571;28;19925;-80
2022/12/10 03:36:10;;;;;;;;;;;;;;;4.26;100.00;99026.00;5012499;28;19913;-80
2022/12/10 03:38:36;;;;;;;;;;;;;;;4.26;100.00;99027.78;5012702;28;19909;-80
2022/12/10 03:41:01;;;;;;;;;;;;;;;4.26;100.00;99019.88;5015511;28;19909;-79
2022/12/10 03:43:27;;;;;;;;;;;;;;;4.27;100.00;99019.00;4995009;28;19921;-79
2022/12/10 03:45:52;;;;;;;;;;;;;;;4.25;100.00;99016.38;4997627;28;19918;-78
2022/12/10 03:48:18;;;;;;;;;;;;;;;4.24;100.00;99014.66;5015406;28;19918;-80
2022/12/10 03:50:43;;;;;;;;;;;;;;;4.26;100.00;99017.25;5012957;28;19916;-80
2022/12/10 03:53:08;;;;;;;;;;;;;;;4.25;100.00;99011.09;5012700;28;19965;-80
2022/12/10 03:55:34;;;;;;;;;;;;;;;4.24;100.00;99017.28;5014186;28;19925;-80
2022/12/10 03:57:59;;;;;;;;;;;;;;;4.25;100.00;99016.38;5015792;28;19909;-79
2022/12/10 04:00:24;;;;;;;;;;;;;;;4.27;100.00;99013.72;5013882;28;19952;-80
2022/12/10 04:02:49;;;;;;;;;;;;;;;4.24;100.00;99019.03;5025924;28;19928;-79
2022/12/10 04:05:15;;;;;;;;;;;;;;;4.24;100.00;99011.16;5012696;28;19952;-80
2022/12/10 04:07:40;;;;;;;;;;;;;;;4.22;100.00;99013.81;5017132;28;19912;-80
2022/12/10 04:10:06;;;;;;;;;;;;;;;4.22;100.00;99008.56;5014904;28;20207;-79
2022/12/10 04:12:31;;;;;;;;;;;;;;;4.19;100.00;99011.25;5016255;28;19910;-80
2022/12/10 04:17:40;;;;;;;;;;;;;;;4.23;100.00;99018.19;5031153;28;19917;-80
2022/12/10 04:26:51;;;;;;;;;;;;;;;4.22;100.00;99013.81;5034438;28;19909;-79
2022/12/10 04:28:20;;;;;;;;;;;;;;;4.21;100.00;99009.47;5031661;28;19933;-80
2022/12/10 04:30:45;;;;;;;;;;;;;;;4.25;100.00;99018.16;5031773;28;19917;-81
2022/12/10 04:33:10;;;;;;;;;;;;;;;4.23;100.00;99015.56;5012396;28;19926;-80
2022/12/10 04:35:35;;;;;;;;;;;;;;;4.18;100.00;99014.81;5011102;28;19906;-79
2022/12/10 04:38:01;;;;;;;;;;;;;;;4.15;100.00;99009.63;5035773;28;19956;-80
2022/12/10 04:40:26;;;;;;;;;;;;;;;4.18;100.00;99016.56;5031343;28;20000;-80
2022/12/10 04:42:51;;;;;;;;;;;;;;;3.95;100.00;98964.47;5014492;28;19941;-81
2022/12/10 04:45:16;;;;;;;;;;;;;;;4.23;100.00;99002.41;5014030;28;19956;-81
2022/12/10 04:47:42;;;;;;;;;;;;;;;4.23;100.00;99004.16;5015300;28;19901;-81
2022/12/10 04:50:07;;;;;;;;;;;;;;;4.26;100.00;99007.59;5014506;28;19945;-80
2022/12/10 04:52:33;;;;;;;;;;;;;;;4.25;100.00;99010.25;4996318;28;20029;-79
2022/12/10 04:54:58;;;;;;;;;;;;;;;4.23;100.00;99009.44;4995961;28;20132;-80
2022/12/10 04:57:23;;;;;;;;;;;;;;;4.21;100.00;99009.47;4996084;28;19921;-80
2022/12/10 04:59:48;;;;;;;;;;;;;;;4.21;100.00;99011.22;5019355;28;19921;-80
2022/12/10 05:02:14;;;;;;;;;;;;;;;4.21;100.00;99014.72;5017794;28;19937;-81
2022/12/10 05:04:39;;;;;;;;;;;;;;;4.18;100.00;99022.69;5019171;28;19928;-80
2022/12/10 05:07:04;;;;;;;;;;;;;;;4.12;100.00;99041.25;5017354;28;19949;-79
2022/12/10 05:09:30;;;;;;;;;;;;;;;4.13;100.00;99043.00;5031227;28;19909;-80
2022/12/10 05:11:55;;;;;;;;;;;;;;;4.18;100.00;99030.59;5036585;28;19910;-79
2022/12/10 05:14:20;;;;;;;;;;;;;;;4.22;100.00;99032.25;5033976;28;19913;-81
2022/12/10 05:16:48;;;;;;;;;;;;;;;4.21;100.00;99029.66;5036687;28;19905;-81
2022/12/10 05:19:14;;;;;;;;;;;;;;;4.17;100.00;99023.59;5037575;28;19963;-79
2022/12/10 05:24:23;;;;;;;;;;;;;;;4.13;100.00;99029.84;5035498;28;19912;-81
2022/12/10 05:26:50;;;;;;;;;;;;;;;4.15;100.00;99035.06;5036852;28;19926;-81
2022/12/10 05:29:16;;;;;;;;;;;;;;;4.12;100.00;99035.97;5036646;28;19996;-79
2022/12/10 05:31:41;;;;;;;;;;;;;;;4.09;100.00;99025.53;5035741;28;19904;-78
2022/12/10 05:34:08;;;;;;;;;;;;;;;4.12;100.00;99035.97;5032534;28;19917;-79
2022/12/10 05:36:33;;;;;;;;;;;;;;;4.05;100.00;99035.25;5017475;28;19925;-80
2022/12/10 05:38:58;;;;;;;;;;;;;;;4.08;100.00;99031.69;5016622;28;19957;-79
2022/12/10 05:41:25;;;;;;;;;;;;;;;4.09;100.00;99030.78;5015874;28;19898;-79
2022/12/10 05:43:50;;;;;;;;;;;;;;;4.07;100.00;99038.72;5022864;28;20380;-80
2022/12/10 05:46:18;;;;;;;;;;;;;;;4.08;100.00;99040.44;5036080;28;19945;-79
2022/12/10 05:48:43;;;;;;;;;;;;;;;4.04;100.00;99048.44;5033200;28;19929;-79
2022/12/10 05:51:14;;;;;;;;;;;;;;;4.03;100.00;99057.25;5015480;28;19914;-79
2022/12/10 05:53:39;;;;;;;;;;;;;;;4.01;100.00;99053.78;5015439;28;19973;-81
2022/12/10 05:56:10;;;;;;;;;;;;;;;3.99;100.00;99066.97;5012192;28;19993;-80
2022/12/10 05:58:35;;;;;;;;;;;;;;;4.02;100.00;99071.28;5010112;28;19913;-81
2022/12/10 06:01:05;;;;;;;;;;;;;;;3.98;100.00;99074.88;5019389;28;19968;-80
2022/12/10 06:03:30;;;;;;;;;;;;;;;3.79;100.00;99027.06;5025933;28;19920;-78
2022/12/10 06:05:56;;;;;;;;;;;;;;;4.04;100.00;99080.00;5015691;28;19925;-80
2022/12/10 06:08:22;;;;;;;;;;;;;;;4.06;100.00;99083.47;5019294;28;19992;-78
2022/12/10 06:10:47;;;;;;;;;;;;;;;4.03;100.00;99084.44;5015227;28;19916;-79
2022/12/10 06:13:12;;;;;;;;;;;;;;;4.07;100.00;99091.34;5013997;28;19965;-80
2022/12/10 06:15:39;;;;;;;;;;;;;;;4.07;100.00;99095.72;5015911;28;19976;-79
2022/12/10 06:18:04;;;;;;;;;;;;;;;4.07;100.00;99089.63;5017719;28;19901;-79
2022/12/10 06:20:29;;;;;;;;;;;;;;;4.11;100.00;99099.16;5015966;28;19909;-79
2022/12/10 06:22:55;;;;;;;;;;;;;;;4.07;100.00;99103.63;5014749;28;19914;-78
2022/12/10 06:25:20;;;;;;;;;;;;;;;4.05;100.00;99108.06;5018556;28;19967;-79
2022/12/10 06:27:45;;;;;;;;;;;;;;;4.04;100.00;99114.22;5015522;28;19936;-80
2022/12/10 06:30:11;;;;;;;;;;;;;;;4.05;100.00;99100.19;5016089;28;19906;-81
2022/12/10 06:32:36;;;;;;;;;;;;;;;4.03;100.00;99109.88;5017922;28;19936;-79
2022/12/10 06:35:02;;;;;;;;;;;;;;;4.05;100.00;99110.69;5018987;28;19898;-80
2022/12/10 06:37:28;;;;;;;;;;;;;;;4.00;100.00;99115.19;5016233;28;19905;-79
2022/12/10 06:39:53;;;;;;;;;;;;;;;4.00;100.00;99109.94;5016226;28;19901;-80
2022/12/10 06:42:19;;;;;;;;;;;;;;;4.02;100.00;99113.38;5018306;28;19910;-78
2022/12/10 06:44:44;;;;;;;;;;;;;;;3.98;100.00;99116.97;5015399;28;19898;-80
2022/12/10 06:47:10;;;;;;;;;;;;;;;3.97;99.77;99125.75;5014613;28;19997;-79
2022/12/10 06:49:35;;;;;;;;;;;;;;;3.91;99.64;99131.16;5016127;28;19977;-79
2022/12/10 06:52:00;;;;;;;;;;;;;;;3.92;99.70;99125.00;5024039;28;19905;-81
2022/12/10 06:54:26;;;;;;;;;;;;;;;3.90;99.31;99132.06;5034451;28;19931;-81
2022/12/10 06:56:51;;;;;;;;;;;;;;;3.89;99.62;99143.47;5031756;28;19906;-81
2022/12/10 06:59:16;;;;;;;;;;;;;;;3.83;99.54;99138.34;5035570;28;19922;-79
2022/12/10 07:01:41;;;;;;;;;;;;;;;3.81;99.79;99134.84;5036693;28;19925;-78
2022/12/10 07:04:07;;;;;;;;;;;;;;;3.84;99.65;99134.78;5019360;28;19913;-81
2022/12/10 07:06:33;;;;;;;;;;;;;;;3.86;99.44;99148.78;5017454;28;19928;-80
2022/12/10 07:08:58;;;;;;;;;;;;;;;3.81;99.43;99150.63;5020532;28;19966;-80
2022/12/10 07:11:24;;;;;;;;;;;;;;;3.81;99.46;99146.25;5032609;28;19973;-81
2022/12/10 07:13:50;;;;;;;;;;;;;;;3.82;99.25;99147.97;5018145;28;19929;-80
2022/12/10 07:16:17;;;;;;;;;;;;;;;3.85;99.46;99147.06;5015914;28;19973;-81
2022/12/10 07:18:42;;;;;;;;;;;;;;;3.87;99.64;99151.38;5024278;28;19924;-80
2022/12/10 07:21:20;;;;;;;;;;;;;;;3.82;99.38;99155.88;5036095;28;19954;-81
2022/12/10 07:23:45;;;;;;;;;;;;;;;3.79;99.61;99158.56;5032766;28;20012;-79
2022/12/10 07:26:10;;;;;;;;;;;;;;;3.82;99.67;99157.66;5015191;28;19922;-81
2022/12/10 07:28:36;;;;;;;;;;;;;;;3.87;99.85;99158.44;5016567;28;19950;-79
2022/12/10 07:31:05;;;;;;;;;;;;;;;3.91;99.88;99167.97;5015890;28;19929;-80
2022/12/10 07:33:31;;;;;;;;;;;;;;;3.87;99.20;99174.22;5017106;28;19972;-81
2022/12/10 07:35:56;;;;;;;;;;;;;;;3.82;99.09;99170.81;5015140;28;19933;-81
2022/12/10 07:38:22;;;;;;;;;;;;;;;3.87;99.25;99172.44;5014459;28;19909;-80
2022/12/10 07:40:47;;;;;;;;;;;;;;;3.85;99.52;99168.97;5014189;28;19990;-81
2022/12/10 07:43:12;;;;;;;;;;;;;;;3.82;99.24;99168.16;5018086;28;20467;-78
2022/12/10 07:45:38;;;;;;;;;;;;;;;3.85;99.62;99183.88;5015601;28;19953;-79
2022/12/10 07:48:03;;;;;;;;;;;;;;;3.86;99.46;99175.09;5020024;28;19984;-80
2022/12/10 07:50:28;;;;;;;;;;;;;;;3.89;99.44;99175.03;5016400;28;19912;-79
2022/12/10 07:52:54;;;;;;;;;;;;;;;3.87;99.65;99190.84;5015438;28;19963;-80
2022/12/10 07:55:19;;;;;;;;;;;;;;;3.86;99.47;99189.13;5018669;28;19973;-80
2022/12/10 07:57:44;;;;;;;;;;;;;;;3.89;99.15;99180.28;5016246;28;19925;-80
2022/12/10 08:00:10;;;;;;;;;;;;;;;3.85;99.50;99190.03;5016443;28;19960;-79
2022/12/10 08:02:35;;;;;;;;;;;;;;;3.84;99.20;99187.41;5015498;28;20004;-80
2022/12/10 08:05:01;;;;;;;;;;;;;;;3.89;99.53;99198.69;5033160;28;19944;-81
2022/12/10 08:07:26;;;;;;;;;;;;;;;3.90;99.21;99203.09;5035853;28;19916;-81
2022/12/10 08:09:51;;;;;;;;;;;;;;;3.93;99.04;99197.75;5018781;28;19985;-79
2022/12/10 08:12:16;;;;;;;;;;;;;;;3.94;99.40;99200.34;4996035;28;19910;-80
2022/12/10 08:14:42;;;;;;;;;;;;;;;3.97;99.15;99199.41;5011417;28;19906;-81
2022/12/10 08:17:07;;;;;;;;;;;;;;;4.01;99.25;99201.09;4995061;28;19898;-81
2022/12/10 08:19:32;;;;;;;;;;;;;;;4.00;98.91;99202.00;5042444;28;19905;-80
2022/12/10 08:21:58;;;;;;;;;;;;;;;3.99;98.80;99202.88;5034703;28;19923;-81
2022/12/10 08:24:23;;;;;;;;;;;;;;;4.01;98.93;99198.47;5028928;28;19906;-81
2022/12/10 08:26:48;;;;;;;;;;;;;;;4.01;98.56;99201.09;5018114;28;19909;-81
2022/12/10 08:29:13;;;;;;;;;;;;;;;4.04;98.80;99203.66;5016451;28;19916;-80
2022/12/10 08:31:39;;;;;;;;;;;;;;;4.11;98.50;99213.19;5033129;28;19921;-80
2022/12/10 08:34:05;;;;;;;;;;;;;;;4.10;98.29;99216.72;5028394;28;19917;-81
2022/12/10 08:36:30;;;;;;;;;;;;;;;4.11;98.14;99222.84;5036284;28;19897;-80
2022/12/10 08:38:55;;;;;;;;;;;;;;;4.09;98.04;99212.34;5026700;28;19932;-78
2022/12/10 08:41:21;;;;;;;;;;;;;;;4.11;97.85;99220.19;5033397;28;19905;-81
2022/12/10 08:43:47;;;;;;;;;;;;;;;4.09;97.95;99217.59;5038654;28;19924;-78
2022/12/10 08:46:13;;;;;;;;;;;;;;;4.12;98.01;99220.16;5038588;28;19965;-80
2022/12/10 08:48:39;;;;;;;;;;;;;;;4.17;98.20;99218.31;5035525;28;19940;-79
2022/12/10 08:51:05;;;;;;;;;;;;;;;4.15;97.54;99214.00;5038300;28;19905;-81
2022/12/10 08:53:32;;;;;;;;;;;;;;;4.18;97.28;99213.94;5039166;28;19981;-80
2022/12/10 08:55:57;;;;;;;;;;;;;;;4.19;96.94;99216.53;5038011;28;19917;-81
2022/12/10 08:58:23;;;;;;;;;;;;;;;4.22;96.88;99224.34;5022600;28;19917;-80
2022/12/10 09:00:49;;;;;;;;;;;;;;;4.28;96.80;99226.88;5025253;28;19921;-81
2022/12/10 09:03:14;;;;;;;;;;;;;;;4.26;96.41;99233.06;5018780;28;19936;-81
2022/12/10 09:05:39;;;;;;;;;;;;;;;4.26;96.37;99231.31;5019186;28;19905;-80
2022/12/10 09:08:05;;;;;;;;;;;;;;;4.31;95.96;99226.81;5019617;28;19901;-81
2022/12/10 09:10:30;;;;;;;;;;;;;;;4.33;95.87;99240.81;5020896;28;19925;-79
2022/12/10 09:12:55;;;;;;;;;;;;;;;4.38;95.84;99244.22;5017640;28;19902;-81
2022/12/10 09:15:21;;;;;;;;;;;;;;;4.45;95.83;99245.81;5020819;28;20519;-81
2022/12/10 09:17:46;;;;;;;;;;;;;;;4.41;95.24;99245.91;5018820;28;19933;-79
2022/12/10 09:20:12;;;;;;;;;;;;;;;4.45;95.31;99244.97;5024244;28;19924;-81
2022/12/10 09:22:38;;;;;;;;;;;;;;;4.40;95.37;99257.34;5019192;28;19937;-79
2022/12/10 09:25:05;;;;;;;;;;;;;;;4.34;95.20;99253.06;5021479;28;19996;-79
2022/12/10 09:27:30;;;;;;;;;;;;;;;4.41;95.01;99256.44;5017536;28;19921;-80
2022/12/10 09:29:56;;;;;;;;;;;;;;;4.41;95.00;99254.69;5019042;28;19926;-80
2022/12/10 09:32:21;;;;;;;;;;;;;;;4.47;94.81;99269.47;5020210;28;19914;-80
2022/12/10 09:34:50;;;;;;;;;;;;;;;4.50;94.51;99265.03;5017991;28;20453;-82
2022/12/10 09:37:15;;;;;;;;;;;;;;;4.57;94.60;99269.28;5024216;28;20389;-80
2022/12/10 09:39:40;;;;;;;;;;;;;;;4.64;94.44;99267.38;5037976;28;19921;-79
2022/12/10 09:42:25;;;;;;;;;;;;;;;4.60;94.19;99282.38;5033605;28;19990;-81
2022/12/10 09:44:58;;;;;;;;;;;;;;;4.60;94.23;99270.97;5019060;28;19906;-80
2022/12/10 09:47:31;;;;;;;;;;;;;;;4.66;93.88;99273.50;5017483;28;19898;-81
2022/12/10 09:50:12;;;;;;;;;;;;;;;4.67;93.93;99278.72;5028818;28;19917;-78
2022/12/10 09:52:41;;;;;;;;;;;;;;;4.75;94.25;99273.28;5037024;28;19922;-81
2022/12/10 09:55:18;;;;;;;;;;;;;;;4.70;93.67;99277.78;5032139;28;19914;-81
2022/12/10 09:57:49;;;;;;;;;;;;;;;4.71;93.28;99275.09;5034946;28;19917;-81
2022/12/10 10:00:17;;;;;;;;;;;;;;;4.73;93.21;99268.03;5037877;28;19917;-80
2022/12/10 10:02:43;;;;;;;;;;;;;;;4.64;92.17;99273.53;5033240;28;19913;-80
2022/12/10 10:05:08;;;;;;;;;;;;;;;4.68;92.33;99271.69;5033386;28;19948;-80
2022/12/10 10:07:36;;;;;;;;;;;;;;;4.78;92.40;99276.72;5018695;28;19928;-78
2022/12/10 10:10:05;;;;;;;;;;;;;;;4.82;92.61;99278.41;5017852;28;19927;-78
2022/12/10 10:12:31;;;;;;;;;;;;;;;4.88;92.18;99275.63;5027940;28;19928;-81
2022/12/10 10:14:56;;;;;;;;;;;;;;;4.89;92.03;99274.72;5018252;28;19969;-80
2022/12/10 10:17:35;;;;;;;;;;;;;;;4.86;92.22;99269.50;5017742;28;19927;-81
2022/12/10 10:20:01;;;;;;;;;;;;;;;5.01;92.02;99260.41;5016700;28;19906;-80
2022/12/10 10:22:26;;;;;;;;;;;;;;;4.90;90.44;99265.94;5013263;28;19924;-81
2022/12/10 10:24:52;;;;;;;;;;;;;;;4.86;91.21;99269.50;5017344;28;19906;-80
2022/12/10 10:27:21;;;;;;;;;;;;;;;4.88;90.72;99283.53;5017765;28;19906;-80
2022/12/10 10:29:51;;;;;;;;;;;;;;;4.83;90.68;99277.50;5034193;28;19948;-80
2022/12/10 10:32:18;;;;;;;;;;;;;;;4.86;90.40;99272.16;5013782;28;19917;-81
2022/12/10 10:34:44;;;;;;;;;;;;;;;4.86;90.40;99280.06;5017815;28;19901;-81
2022/12/10 10:37:15;;;;;;;;;;;;;;;4.97;90.53;99278.06;5021512;28;19910;-81
2022/12/10 10:39:45;;;;;;;;;;;;;;;5.07;90.82;99271.66;5017016;28;19909;-80
2022/12/10 10:42:11;;;;;;;;;;;;;;;5.10;90.16;99279.53;5019773;28;19908;-80
2022/12/10 10:44:38;;;;;;;;;;;;;;;5.08;90.14;99283.97;5016726;28;19910;-80
2022/12/10 10:47:23;;;;;;;;;;;;;;;5.05;89.18;99286.69;5017192;28;19909;-80
2022/12/10 10:49:49;;;;;;;;;;;;;;;5.14;88.81;99288.25;5048799;28;19910;-80
2022/12/10 10:52:15;;;;;;;;;;;;;;;5.21;88.78;99282.78;5026467;28;19959;-80
2022/12/10 10:54:42;;;;;;;;;;;;;;;5.20;89.18;99282.81;5015664;28;19918;-81
2022/12/10 10:57:23;;;;;;;;;;;;;;;5.14;87.84;99289.09;4998276;28;19921;-79
2022/12/10 10:59:49;;;;;;;;;;;;;;;5.16;87.53;99294.31;5005561;28;19909;-80
2022/12/10 11:02:14;;;;;;;;;;;;;;;5.24;87.64;99303.78;5017075;28;19906;-81
2022/12/10 11:04:47;;;;;;;;;;;;;;;5.21;86.73;99303.88;5016489;28;19916;-81
2022/12/10 11:07:20;;;;;;;;;;;;;;;5.26;86.57;99302.00;5030491;28;19921;-81
2022/12/10 11:09:45;;;;;;;;;;;;;;;5.19;86.13;99296.88;5033724;28;19989;-80
2022/12/10 11:12:28;;;;;;;;;;;;;;;5.23;86.38;99296.81;5035487;28;19917;-80
2022/12/10 11:14:53;;;;;;;;;;;;;;;5.33;87.18;99295.69;5030951;28;19976;-80
2022/12/10 11:17:20;;;;;;;;;;;;;;;5.31;86.74;99294.84;5036692;28;19905;-81
2022/12/10 11:19:54;;;;;;;;;;;;;;;5.26;86.73;99296.72;5033714;28;19908;-81
2022/12/10 11:22:21;;;;;;;;;;;;;;;5.32;87.33;99291.31;5017254;28;19964;-81
2022/12/10 11:24:47;;;;;;;;;;;;;;;5.45;87.01;99285.75;5017119;28;19969;-80
2022/12/10 11:27:19;;;;;;;;;;;;;;;5.58;87.16;99292.47;5016292;28;19959;-80
2022/12/10 11:30:04;;;;;;;;;;;;;;;5.56;86.18;99291.63;5032238;28;19977;-82
2022/12/10 11:32:30;;;;;;;;;;;;;;;5.38;85.52;99291.19;5006907;28;19917;-82
2022/12/10 11:35:14;;;;;;;;;;;;;;;5.33;85.57;99294.81;5007576;28;19961;-79
2022/12/10 11:37:57;;;;;;;;;;;;;;;5.32;84.82;99296.56;5005239;28;20274;-80
2022/12/10 11:40:28;;;;;;;;;;;;;;;5.31;84.07;99308.03;5009048;28;19913;-78
2022/12/10 11:42:59;;;;;;;;;;;;;;;5.28;84.38;99304.59;5009170;28;19925;-81
2022/12/10 11:45:40;;;;;;;;;;;;;;;5.32;84.31;99303.66;5008760;28;19973;-80
2022/12/10 11:48:17;;;;;;;;;;;;;;;5.32;84.18;99301.84;4998347;28;19949;-81
2022/12/10 11:50:42;;;;;;;;;;;;;;;5.33;84.80;99295.69;5009718;28;19956;-80
2022/12/10 11:53:34;;;;;;;;;;;;;;;5.40;84.79;99301.69;5010732;28;19925;-79
2022/12/10 11:56:09;;;;;;;;;;;;;;;5.42;85.23;99306.94;5007997;28;19917;-79
2022/12/10 11:58:57;;;;;;;;;;;;;;;5.45;84.90;99306.84;5010166;28;20001;-81
2022/12/10 12:01:26;;;;;;;;;;;;;;;5.43;85.25;99309.53;5024074;28;19894;-79
2022/12/10 12:04:14;;;;;;;;;;;;;;;5.35;84.42;99307.03;5016737;28;19945;-79
2022/12/10 12:06:54;;;;;;;;;;;;;;;5.37;84.78;99314.91;4997456;28;20293;-78
2022/12/10 12:09:25;;;;;;;;;;;;;;;5.37;84.21;99318.44;5019810;28;19937;-79
2022/12/10 12:11:54;;;;;;;;;;;;;;;5.37;83.80;99326.34;5017405;28;19914;-80
2022/12/10 12:14:24;;;;;;;;;;;;;;;5.27;83.47;99324.81;5013721;28;19925;-80
2022/12/10 12:16:59;;;;;;;;;;;;;;;5.18;84.13;99330.31;5015757;28;19937;-79
2022/12/10 12:19:37;;;;;;;;;;;;;;;5.20;84.31;99331.16;5016001;28;19913;-80
2022/12/10 12:22:11;;;;;;;;;;;;;;;5.23;84.93;99333.72;5032400;28;20009;-79
2022/12/10 12:24:37;;;;;;;;;;;;;;;5.15;84.85;99340.03;5027589;28;19932;-80
2022/12/10 12:27:13;;;;;;;;;;;;;;;5.04;84.80;99337.63;5005169;28;20297;-79
2022/12/10 12:29:45;;;;;;;;;;;;;;;5.06;84.19;99337.59;5000834;28;19972;-79
2022/12/10 12:32:16;;;;;;;;;;;;;;;5.06;84.63;99341.09;5006163;28;19913;-79
2022/12/10 12:35:00;;;;;;;;;;;;;;;5.12;85.04;99346.22;5000717;28;20399;-80
2022/12/10 12:37:55;;;;;;;;;;;;;;;5.12;85.24;99348.03;5000747;28;20304;-79
2022/12/10 12:40:33;;;;;;;;;;;;;;;5.12;85.90;99342.75;5000160;28;19913;-79
2022/12/10 12:42:59;;;;;;;;;;;;;;;5.12;86.27;99342.75;5013853;28;19968;-79
2022/12/10 12:45:31;;;;;;;;;;;;;;;5.07;86.18;99350.75;5002796;28;19992;-79
2022/12/10 12:47:56;;;;;;;;;;;;;;;5.07;85.08;99348.09;5011214;28;20007;-79
2022/12/10 12:50:33;;;;;;;;;;;;;;;4.99;84.66;99350.03;5013032;28;19949;-79